createdAt,value
2018-03-30T00:00:13.253Z,63.70
2018-03-30T00:02:40.708Z,63.90
2018-03-30T00:05:08.156Z,63.70
2018-03-30T00:07:35.657Z,63.80
2018-03-30T00:10:03.157Z,63.90
2018-03-30T00:12:30.646Z,63.80
2018-03-30T00:14:58.098Z,63.80
2018-03-30T00:17:25.581Z,63.90
2018-03-30T00:19:53.081Z,63.90
2018-03-30T00:22:20.560Z,63.90
2018-03-30T00:24:48.018Z,64.10
2018-03-30T00:27:15.476Z,63.90
2018-03-30T00:29:42.949Z,63.90
2018-03-30T00:32:10.638Z,63.80
2018-03-30T00:34:39.952Z,64.00
2018-03-30T00:37:07.838Z,64.00
2018-03-30T00:39:35.358Z,64.00
2018-03-30T00:42:02.809Z,64.10
2018-03-30T00:44:30.307Z,64.00
2018-03-30T00:46:57.757Z,64.20
2018-03-30T00:49:25.222Z,64.20
2018-03-30T00:51:52.701Z,64.30
2018-03-30T00:54:20.213Z,64.20
2018-03-30T00:56:47.668Z,64.10
2018-03-30T00:59:15.124Z,64.00
2018-03-30T01:01:42.568Z,63.90
2018-03-30T01:04:10.042Z,63.90
2018-03-30T01:06:37.501Z,64.70
2018-03-30T01:09:05.020Z,64.00
2018-03-30T01:11:32.500Z,63.90
2018-03-30T01:13:59.954Z,63.80
2018-03-30T01:16:27.429Z,63.80
2018-03-30T01:18:54.893Z,64.60
2018-03-30T01:21:22.366Z,64.00
2018-03-30T01:23:49.820Z,64.10
2018-03-30T01:26:17.304Z,65.10
2018-03-30T01:28:44.754Z,64.30
2018-03-30T01:31:12.201Z,63.90
2018-03-30T01:33:39.673Z,64.80
2018-03-30T01:36:07.153Z,64.90
2018-03-30T01:38:34.689Z,65.00
2018-03-30T01:41:02.140Z,65.20
2018-03-30T01:43:29.604Z,65.30
2018-03-30T01:45:57.059Z,65.40
2018-03-30T01:48:24.528Z,65.50
2018-03-30T01:50:52.765Z,65.90
2018-03-30T01:53:20.236Z,65.90
2018-03-30T01:55:47.714Z,66.20
2018-03-30T01:58:15.196Z,66.20
2018-03-30T02:00:42.950Z,66.40
2018-03-30T02:03:11.166Z,66.60
2018-03-30T02:05:38.627Z,66.60
2018-03-30T02:08:06.082Z,66.60
2018-03-30T02:10:33.570Z,66.90
2018-03-30T02:13:01.030Z,67.10
2018-03-30T02:15:28.472Z,67.20
2018-03-30T02:17:56.036Z,67.50
2018-03-30T02:20:24.254Z,67.70
2018-03-30T02:22:51.697Z,67.70
2018-03-30T02:25:19.168Z,67.90
2018-03-30T02:27:46.679Z,68.10
2018-03-30T02:30:14.182Z,68.30
2018-03-30T02:32:42.428Z,68.50
2018-03-30T02:35:09.907Z,68.50
2018-03-30T02:37:37.357Z,68.60
2018-03-30T02:40:04.844Z,68.60
2018-03-30T02:42:33.061Z,68.70
2018-03-30T02:45:00.508Z,68.60
2018-03-30T02:47:27.985Z,68.70
2018-03-30T02:49:55.474Z,68.70
2018-03-30T02:52:22.917Z,68.70
2018-03-30T02:54:50.378Z,68.70
2018-03-30T02:57:17.881Z,68.60
2018-03-30T02:59:45.385Z,68.70
2018-03-30T03:02:12.851Z,68.60
2018-03-30T03:04:40.312Z,68.50
2018-03-30T03:07:07.789Z,68.40
2018-03-30T03:09:36.008Z,68.30
2018-03-30T03:12:03.477Z,68.30
2018-03-30T03:14:30.925Z,68.10
2018-03-30T03:16:58.404Z,68.00
2018-03-30T03:19:25.896Z,68.00
2018-03-30T03:21:53.365Z,68.10
2018-03-30T03:24:21.572Z,68.00
2018-03-30T03:26:49.060Z,67.90
2018-03-30T03:29:16.552Z,68.10
2018-03-30T03:31:44.777Z,68.50
2018-03-30T03:34:12.260Z,68.50
2018-03-30T03:36:39.709Z,68.50
2018-03-30T03:39:07.181Z,68.70
2018-03-30T03:41:34.641Z,68.70
2018-03-30T03:44:02.122Z,68.70
2018-03-30T03:46:30.360Z,69.00
2018-03-30T03:48:57.841Z,68.90
2018-03-30T03:51:25.313Z,69.00
2018-03-30T03:53:53.566Z,69.20
2018-03-30T03:56:21.069Z,69.20
2018-03-30T03:58:48.573Z,69.30
2018-03-30T04:01:16.098Z,69.30
2018-03-30T04:03:43.557Z,69.30
2018-03-30T04:06:11.046Z,69.70
2018-03-30T04:08:38.523Z,69.80
2018-03-30T04:11:05.964Z,69.80
2018-03-30T04:13:33.461Z,70.00
2018-03-30T04:16:01.690Z,70.20
2018-03-30T04:18:29.169Z,70.20
2018-03-30T04:20:56.649Z,70.40
2018-03-30T04:23:24.864Z,71.60
2018-03-30T04:25:52.337Z,70.90
2018-03-30T04:28:19.874Z,70.90
2018-03-30T04:30:47.357Z,71.10
2018-03-30T04:33:14.816Z,71.30
2018-03-30T04:35:42.274Z,71.50
2018-03-30T04:38:09.761Z,71.70
2018-03-30T04:40:37.224Z,71.70
2018-03-30T04:43:04.669Z,72.00
2018-03-30T04:45:32.301Z,72.10
2018-03-30T04:47:59.751Z,72.20
2018-03-30T04:50:27.253Z,72.30
2018-03-30T04:52:54.723Z,72.60
2018-03-30T04:55:22.937Z,73.10
2018-03-30T04:57:50.412Z,73.00
2018-03-30T05:00:17.930Z,72.90
2018-03-30T05:02:46.146Z,73.30
2018-03-30T05:05:14.384Z,73.50
2018-03-30T05:07:41.852Z,73.50
2018-03-30T05:10:09.352Z,73.90
2018-03-30T05:12:36.820Z,74.10
2018-03-30T05:15:04.272Z,74.30
2018-03-30T05:17:31.755Z,74.50
2018-03-30T05:19:59.212Z,74.60
2018-03-30T05:22:26.656Z,75.00
2018-03-30T05:24:54.157Z,75.10
2018-03-30T05:27:21.599Z,75.40
2018-03-30T05:29:49.906Z,75.70
2018-03-30T05:32:17.694Z,75.60
2018-03-30T05:34:45.166Z,75.70
2018-03-30T05:37:13.449Z,76.00
2018-03-30T05:39:40.934Z,76.00
2018-03-30T05:42:09.172Z,76.40
2018-03-30T05:44:36.648Z,76.30
2018-03-30T05:47:04.100Z,76.50
2018-03-30T05:49:32.662Z,76.40
2018-03-30T05:52:00.129Z,76.70
2018-03-30T05:54:27.580Z,76.70
2018-03-30T05:56:55.054Z,77.20
2018-03-30T05:59:22.509Z,77.30
2018-03-30T06:01:49.984Z,77.60
2018-03-30T06:04:17.469Z,77.70
2018-03-30T06:06:44.964Z,77.70
2018-03-30T06:09:12.408Z,77.70
2018-03-30T06:11:39.866Z,77.80
2018-03-30T06:14:07.331Z,77.60
2018-03-30T06:16:34.794Z,77.80
2018-03-30T06:19:02.349Z,77.80
2018-03-30T06:21:29.812Z,77.90
2018-03-30T06:23:57.281Z,77.90
2018-03-30T06:26:24.742Z,78.00
2018-03-30T06:28:52.217Z,78.00
2018-03-30T06:31:19.673Z,78.10
2018-03-30T06:33:47.164Z,77.90
2018-03-30T06:36:14.644Z,77.70
2018-03-30T06:38:42.120Z,77.70
2018-03-30T06:41:09.575Z,77.70
2018-03-30T06:43:37.060Z,77.60
2018-03-30T06:46:04.576Z,77.40
2018-03-30T06:48:32.132Z,77.30
2018-03-30T06:50:59.653Z,77.30
2018-03-30T06:53:27.203Z,77.30
2018-03-30T06:55:54.774Z,77.30
2018-03-30T06:58:23.193Z,76.90
2018-03-30T07:00:50.737Z,76.90
2018-03-30T07:03:19.004Z,76.80
2018-03-30T07:05:47.214Z,76.70
2018-03-30T07:08:14.872Z,76.60
2018-03-30T07:10:42.561Z,76.70
2018-03-30T07:13:11.030Z,76.70
2018-03-30T07:15:38.995Z,76.50
2018-03-30T07:18:06.528Z,76.50
2018-03-30T07:20:34.088Z,76.20
2018-03-30T07:23:02.492Z,75.80
2018-03-30T07:25:29.992Z,75.70
2018-03-30T07:27:57.682Z,74.90
2018-03-30T07:30:25.232Z,73.90
2018-03-30T07:32:52.995Z,73.80
2018-03-30T07:35:20.633Z,74.00
2018-03-30T07:37:48.140Z,73.60
2018-03-30T07:40:15.932Z,73.60
2018-03-30T07:42:43.702Z,73.70
2018-03-30T07:45:11.252Z,73.70
2018-03-30T07:47:38.767Z,73.60
2018-03-30T07:50:06.505Z,73.50
2018-03-30T07:52:34.869Z,73.40
2018-03-30T07:55:02.354Z,73.30
2018-03-30T07:57:29.854Z,72.60
2018-03-30T07:59:57.720Z,72.30
2018-03-30T08:02:25.227Z,72.10
2018-03-30T08:04:52.699Z,71.80
2018-03-30T08:07:21.108Z,71.40
2018-03-30T08:09:48.659Z,71.50
2018-03-30T08:12:16.925Z,71.80
2018-03-30T08:14:44.393Z,71.10
2018-03-30T08:17:11.833Z,71.20
2018-03-30T08:19:39.312Z,70.10
2018-03-30T08:22:07.561Z,69.40
2018-03-30T08:24:35.009Z,69.50
2018-03-30T08:27:02.635Z,69.20
2018-03-30T08:29:30.117Z,69.00
2018-03-30T08:31:57.563Z,68.50
2018-03-30T08:34:25.032Z,68.30
2018-03-30T08:36:53.249Z,67.40
2018-03-30T08:39:21.201Z,67.30
2018-03-30T08:41:48.894Z,66.90
2018-03-30T08:44:16.691Z,66.60
2018-03-30T08:46:44.275Z,66.70
2018-03-30T08:49:12.818Z,65.90
2018-03-30T08:51:40.313Z,65.80
2018-03-30T08:54:07.890Z,65.20
2018-03-30T08:56:35.485Z,65.00
2018-03-30T08:59:03.916Z,65.00
2018-03-30T09:01:32.228Z,65.30
2018-03-30T09:03:59.899Z,66.00
2018-03-30T09:06:27.378Z,64.90
2018-03-30T09:08:54.857Z,64.50
2018-03-30T09:11:22.417Z,64.30
2018-03-30T09:13:50.010Z,63.80
2018-03-30T09:16:18.021Z,63.80
2018-03-30T09:18:45.855Z,64.00
2018-03-30T09:21:14.145Z,63.90
2018-03-30T09:23:41.702Z,63.90
2018-03-30T09:26:09.298Z,63.80
2018-03-30T09:28:36.778Z,63.80
2018-03-30T09:31:04.298Z,63.30
2018-03-30T09:33:33.520Z,62.70
2018-03-30T09:36:01.432Z,62.60
2018-03-30T09:38:28.920Z,61.80
2018-03-30T09:40:57.176Z,60.80
2018-03-30T09:43:24.867Z,60.70
2018-03-30T09:45:52.511Z,60.60
2018-03-30T09:48:21.023Z,60.20
2018-03-30T09:50:48.544Z,60.00
2018-03-30T09:53:16.132Z,59.80
2018-03-30T09:55:44.698Z,59.80
2018-03-30T09:58:12.358Z,59.70
2018-03-30T10:00:48.912Z,59.80
2018-03-30T10:03:16.529Z,59.80
2018-03-30T10:05:44.171Z,59.30
2018-03-30T10:08:12.626Z,59.20
2018-03-30T10:10:40.869Z,59.60
2018-03-30T10:13:08.594Z,59.00
2018-03-30T10:15:36.354Z,58.40
2018-03-30T10:18:04.824Z,58.00
2018-03-30T10:20:32.332Z,57.90
2018-03-30T10:22:59.809Z,57.90
2018-03-30T10:25:27.280Z,57.60
2018-03-30T10:27:54.775Z,57.30
2018-03-30T10:30:22.240Z,56.90
2018-03-30T10:32:50.473Z,55.30
2018-03-30T10:35:17.929Z,55.30
2018-03-30T10:37:45.406Z,55.00
2018-03-30T10:40:12.866Z,54.20
2018-03-30T10:42:40.329Z,54.10
2018-03-30T10:45:07.782Z,54.00
2018-03-30T10:47:35.269Z,53.50
2018-03-30T10:50:03.487Z,52.90
2018-03-30T10:52:30.971Z,52.80
2018-03-30T10:54:58.421Z,52.80
2018-03-30T11:00:06.517Z,52.00
2018-03-30T11:02:34.003Z,52.30
2018-03-30T11:05:01.456Z,51.70
2018-03-30T11:07:28.932Z,50.60
2018-03-30T11:09:56.409Z,50.40
2018-03-30T11:12:24.654Z,50.00
2018-03-30T11:14:52.106Z,50.00
2018-03-30T11:17:19.577Z,49.60
2018-03-30T11:19:47.042Z,49.30
2018-03-30T11:22:14.500Z,49.10
2018-03-30T11:24:41.991Z,48.50
2018-03-30T11:27:10.261Z,47.30
2018-03-30T11:29:38.506Z,47.20
2018-03-30T11:32:05.959Z,47.10
2018-03-30T11:34:33.435Z,46.90
2018-03-30T11:37:00.882Z,46.50
2018-03-30T11:39:28.352Z,46.30
2018-03-30T11:41:55.820Z,46.00
2018-03-30T11:44:24.038Z,45.60
2018-03-30T11:46:51.516Z,45.60
2018-03-30T11:49:19.820Z,45.50
2018-03-30T11:51:47.260Z,45.40
2018-03-30T11:54:14.741Z,45.40
2018-03-30T11:56:42.984Z,45.90
2018-03-30T11:59:10.473Z,45.70
2018-03-30T12:01:37.943Z,46.40
2018-03-30T12:04:06.161Z,46.50
2018-03-30T12:06:33.642Z,46.50
2018-03-30T12:09:01.089Z,45.50
2018-03-30T12:11:28.569Z,45.10
2018-03-30T12:13:56.016Z,45.20
2018-03-30T12:16:23.469Z,45.20
2018-03-30T12:18:50.986Z,44.80
2018-03-30T12:21:18.436Z,43.80
2018-03-30T12:23:45.889Z,43.80
2018-03-30T12:26:14.129Z,44.40
2018-03-30T12:28:41.590Z,44.40
2018-03-30T12:31:09.056Z,44.30
2018-03-30T12:33:36.524Z,44.20
2018-03-30T12:36:04.743Z,43.90
2018-03-30T12:38:32.217Z,43.90
2018-03-30T12:41:00.517Z,44.50
2018-03-30T12:43:27.888Z,43.90
2018-03-30T12:45:55.360Z,43.90
2018-03-30T12:48:23.582Z,43.20
2018-03-30T12:50:51.052Z,43.20
2018-03-30T12:53:18.510Z,43.30
2018-03-30T12:55:45.986Z,43.40
2018-03-30T12:58:13.432Z,43.40
2018-03-30T13:00:40.917Z,42.90
2018-03-30T13:03:08.362Z,42.50
2018-03-30T13:05:35.818Z,41.70
2018-03-30T13:08:03.294Z,41.80
2018-03-30T13:10:31.529Z,41.60
2018-03-30T13:12:59.005Z,41.60
2018-03-30T13:15:26.448Z,41.70
2018-03-30T13:17:53.932Z,41.60
2018-03-30T13:20:21.380Z,41.60
2018-03-30T13:22:48.864Z,41.70
2018-03-30T13:25:16.328Z,41.80
2018-03-30T13:27:43.811Z,41.70
2018-03-30T13:30:11.269Z,41.30
2018-03-30T13:32:38.734Z,41.30
2018-03-30T13:35:06.206Z,41.10
2018-03-30T13:37:33.653Z,40.30
2018-03-30T13:40:01.198Z,40.20
2018-03-30T13:42:28.660Z,39.50
2018-03-30T13:44:56.136Z,38.70
2018-03-30T13:47:23.596Z,37.40
2018-03-30T13:49:51.053Z,37.10
2018-03-30T13:52:29.133Z,36.60
2018-03-30T13:54:57.521Z,35.80
2018-03-30T14:00:22.005Z,34.40
2018-03-30T14:02:53.006Z,33.30
2018-03-30T14:05:32.964Z,33.30
2018-03-30T14:08:08.681Z,33.30
2018-03-30T14:10:51.813Z,32.80
2018-03-30T14:13:19.284Z,32.40
2018-03-30T14:15:50.168Z,31.40
2018-03-30T14:18:28.106Z,31.80
2018-03-30T14:20:56.488Z,31.80
2018-03-30T14:26:20.539Z,31.30
2018-03-30T14:28:48.801Z,30.80
2018-03-30T14:31:20.023Z,31.10
2018-03-30T14:33:47.533Z,31.30
2018-03-30T14:36:23.909Z,31.20
2018-03-30T14:38:53.117Z,31.20
2018-03-30T14:41:20.620Z,31.30
2018-03-30T14:43:50.845Z,31.20
2018-03-30T14:46:19.992Z,30.50
2018-03-30T14:48:52.922Z,30.70
2018-03-30T14:51:23.910Z,30.90
2018-03-30T14:53:54.567Z,29.90
2018-03-30T14:56:22.976Z,29.90
2018-03-30T14:58:51.245Z,30.40
2018-03-30T15:01:19.497Z,30.60
2018-03-30T15:04:00.317Z,30.10
2018-03-30T15:06:33.287Z,30.00
2018-03-30T15:09:16.773Z,30.20
2018-03-30T15:12:00.692Z,30.40
2018-03-30T15:14:30.954Z,30.10
2018-03-30T15:17:15.062Z,30.30
2018-03-30T15:19:42.529Z,31.00
2018-03-30T15:25:17.781Z,32.60
2018-03-30T15:27:51.797Z,33.20
2018-03-30T15:30:29.788Z,33.30
2018-03-30T15:36:24.318Z,34.10
2018-03-30T15:38:51.772Z,33.80
2018-03-30T15:41:21.128Z,34.60
2018-03-30T15:43:48.615Z,35.10
2018-03-30T15:46:23.866Z,34.90
2018-03-30T15:48:51.608Z,34.90
2018-03-30T15:51:23.760Z,35.10
2018-03-30T15:53:50.731Z,35.70
2018-03-30T15:56:18.462Z,36.30
2018-03-30T15:58:45.976Z,36.80
2018-03-30T16:01:13.503Z,37.20
2018-03-30T16:03:41.021Z,37.40
2018-03-30T16:06:08.501Z,37.80
2018-03-30T16:08:35.955Z,38.00
2018-03-30T16:11:05.346Z,38.20
2018-03-30T16:13:32.849Z,38.60
2018-03-30T16:16:00.686Z,38.90
2018-03-30T16:18:39.949Z,39.10
2018-03-30T16:21:06.908Z,39.20
2018-03-30T16:23:33.903Z,39.30
2018-03-30T16:26:00.983Z,39.50
2018-03-30T16:28:27.957Z,39.70
2018-03-30T16:30:55.044Z,40.00
2018-03-30T16:33:22.320Z,40.10
2018-03-30T16:35:49.362Z,40.30
2018-03-30T16:38:16.316Z,40.40
2018-03-30T16:40:43.344Z,40.70
2018-03-30T16:43:10.286Z,41.00
2018-03-30T16:45:37.459Z,41.20
2018-03-30T16:48:05.274Z,41.70
2018-03-30T16:50:32.234Z,41.60
2018-03-30T16:53:00.084Z,41.70
2018-03-30T16:55:27.086Z,41.70
2018-03-30T16:57:54.053Z,41.80
2018-03-30T17:00:21.016Z,42.10
2018-03-30T17:02:47.997Z,42.50
2018-03-30T17:05:14.989Z,42.30
2018-03-30T17:07:41.960Z,42.60
2018-03-30T17:10:08.993Z,42.50
2018-03-30T17:12:36.112Z,42.70
2018-03-30T17:15:03.104Z,42.90
2018-03-30T17:17:30.061Z,43.00
2018-03-30T17:19:57.823Z,43.70
2018-03-30T17:22:24.779Z,43.10
2018-03-30T17:24:52.529Z,43.20
2018-03-30T17:27:19.481Z,43.20
2018-03-30T17:29:46.473Z,43.20
2018-03-30T17:32:13.429Z,43.20
2018-03-30T17:34:40.426Z,42.90
2018-03-30T17:37:08.161Z,42.90
2018-03-30T17:39:35.141Z,42.90
2018-03-30T17:42:02.894Z,42.80
2018-03-30T17:44:29.886Z,42.80
2018-03-30T17:46:56.843Z,43.00
2018-03-30T17:49:23.796Z,42.90
2018-03-30T17:51:50.781Z,43.00
2018-03-30T17:54:18.425Z,43.00
2018-03-30T17:56:45.393Z,42.90
2018-03-30T17:59:12.437Z,42.80
2018-03-30T18:01:39.393Z,42.80
2018-03-30T18:04:07.128Z,42.80
2018-03-30T18:06:34.114Z,42.80
2018-03-30T18:09:01.889Z,43.10
2018-03-30T18:11:28.887Z,43.10
2018-03-30T18:13:55.865Z,43.10
2018-03-30T18:16:23.589Z,43.70
2018-03-30T18:18:50.598Z,43.50
2018-03-30T18:21:17.595Z,43.60
2018-03-30T18:23:44.594Z,43.80
2018-03-30T18:26:11.574Z,44.00
2018-03-30T18:28:38.562Z,44.10
2018-03-30T18:31:06.294Z,44.30
2018-03-30T18:33:33.293Z,44.30
2018-03-30T18:36:00.268Z,44.40
2018-03-30T18:38:27.362Z,44.50
2018-03-30T18:40:54.311Z,44.60
2018-03-30T18:43:21.301Z,44.80
2018-03-30T18:45:48.275Z,44.80
2018-03-30T18:48:15.278Z,45.00
2018-03-30T18:50:42.236Z,45.00
2018-03-30T18:53:09.212Z,45.10
2018-03-30T18:55:36.198Z,45.10
2018-03-30T18:58:03.960Z,45.40
2018-03-30T19:00:31.188Z,45.40
2018-03-30T19:02:58.449Z,45.60
2018-03-30T19:05:25.654Z,45.70
2018-03-30T19:07:52.732Z,45.80
2018-03-30T19:10:19.709Z,46.00
2018-03-30T19:12:46.757Z,46.10
2018-03-30T19:15:14.509Z,46.30
2018-03-30T19:17:41.541Z,46.30
2018-03-30T19:20:08.560Z,46.40
2018-03-30T19:22:35.506Z,46.30
2018-03-30T19:25:02.535Z,46.40
2018-03-30T19:27:29.753Z,46.70
2018-03-30T19:29:56.864Z,46.70
2018-03-30T19:32:24.008Z,47.00
2018-03-30T19:34:51.017Z,47.10
2018-03-30T19:37:18.207Z,47.00
2018-03-30T19:39:45.203Z,47.20
2018-03-30T19:42:12.472Z,47.40
2018-03-30T19:44:39.499Z,47.50
2018-03-30T19:47:07.298Z,47.60
2018-03-30T19:49:34.304Z,47.50
2018-03-30T19:52:01.635Z,47.60
2018-03-30T19:54:28.911Z,47.60
2018-03-30T19:56:55.903Z,47.80
2018-03-30T19:59:23.088Z,47.90
2018-03-30T20:01:50.288Z,47.90
2018-03-30T20:04:18.309Z,48.20
2018-03-30T20:06:45.308Z,48.20
2018-03-30T20:09:12.370Z,48.30
2018-03-30T20:11:39.697Z,48.60
2018-03-30T20:14:06.872Z,49.00
2018-03-30T20:16:33.868Z,49.20
2018-03-30T20:19:00.852Z,49.30
2018-03-30T20:21:28.769Z,50.60
2018-03-30T20:23:55.819Z,50.50
2018-03-30T20:26:23.262Z,51.50
2018-03-30T20:28:50.393Z,51.80
2018-03-30T20:31:17.877Z,52.50
2018-03-30T20:33:44.904Z,53.60
2018-03-30T20:36:12.640Z,54.90
2018-03-30T20:38:39.716Z,54.90
2018-03-30T20:41:06.766Z,55.80
2018-03-30T20:43:33.792Z,56.60
2018-03-30T20:46:00.804Z,57.10
2018-03-30T20:48:27.805Z,57.80
2018-03-30T20:50:54.768Z,58.20
2018-03-30T20:53:21.743Z,58.70
2018-03-30T20:55:49.548Z,59.90
2018-03-30T20:58:16.776Z,59.80
2018-03-30T21:00:43.787Z,60.30
2018-03-30T21:03:10.969Z,60.60
2018-03-30T21:05:37.961Z,60.90
2018-03-30T21:08:05.053Z,61.50
2018-03-30T21:10:32.242Z,61.90
2018-03-30T21:12:59.257Z,62.30
2018-03-30T21:15:26.589Z,62.70
2018-03-30T21:17:53.589Z,62.90
2018-03-30T21:20:20.578Z,63.40
2018-03-30T21:22:47.575Z,63.30
2018-03-30T21:25:15.645Z,63.70
2018-03-30T21:27:43.750Z,63.60
2018-03-30T21:30:10.937Z,63.60
2018-03-30T21:32:38.232Z,63.70
2018-03-30T21:35:05.496Z,63.90
2018-03-30T21:37:32.551Z,64.00
2018-03-30T21:39:59.540Z,64.20
2018-03-30T21:42:26.496Z,64.40
2018-03-30T21:44:53.464Z,64.60
2018-03-30T21:47:20.433Z,64.80
2018-03-30T21:49:48.249Z,64.90
2018-03-30T21:52:15.208Z,64.90
2018-03-30T21:54:42.194Z,65.00
2018-03-30T21:57:09.956Z,65.10
2018-03-30T21:59:36.920Z,65.10
2018-03-30T22:02:04.653Z,65.40
2018-03-30T22:04:31.661Z,65.40
2018-03-30T22:06:58.624Z,65.60
2018-03-30T22:09:25.602Z,65.70
2018-03-30T22:11:52.619Z,65.70
2018-03-30T22:14:19.604Z,65.80
2018-03-30T22:16:47.358Z,66.00
2018-03-30T22:19:14.445Z,66.00
2018-03-30T22:21:41.433Z,66.00
2018-03-30T22:24:08.399Z,66.10
2018-03-30T22:26:35.391Z,66.30
2018-03-30T22:29:02.351Z,66.30
2018-03-30T22:31:29.314Z,66.30
2018-03-30T22:33:56.312Z,66.40
2018-03-30T22:36:24.036Z,66.60
2018-03-30T22:38:51.002Z,66.60
2018-03-30T22:41:17.985Z,66.80
2018-03-30T22:43:44.981Z,67.00
2018-03-30T22:46:11.964Z,67.20
2018-03-30T22:48:39.021Z,67.50
2018-03-30T22:51:05.985Z,67.60
2018-03-30T22:53:32.970Z,67.70
2018-03-30T22:55:59.934Z,67.80
2018-03-30T22:58:27.685Z,68.20
2018-03-30T23:00:54.650Z,68.10
2018-03-30T23:03:22.413Z,68.50
2018-03-30T23:05:49.401Z,68.50
2018-03-30T23:08:16.369Z,68.60
2018-03-30T23:10:43.365Z,68.70
2018-03-30T23:13:11.106Z,69.00
2018-03-30T23:15:38.100Z,69.00
2018-03-30T23:18:05.068Z,69.00
2018-03-30T23:20:32.073Z,69.10
2018-03-30T23:22:59.824Z,69.60
2018-03-30T23:25:26.781Z,69.50
2018-03-30T23:27:54.533Z,69.90
2018-03-30T23:30:21.493Z,69.80
2018-03-30T23:32:49.248Z,69.90
2018-03-30T23:35:16.996Z,69.90
2018-03-30T23:37:43.964Z,69.90
2018-03-30T23:40:11.052Z,69.90
2018-03-30T23:42:38.029Z,70.10
2018-03-30T23:45:05.021Z,70.00
2018-03-30T23:47:32.017Z,70.00
2018-03-30T23:49:59.001Z,70.00
2018-03-30T23:52:25.964Z,70.00
2018-03-30T23:54:52.958Z,69.80
2018-03-30T23:57:19.945Z,70.10
2018-03-30T23:59:46.929Z,70.10
